createdAt,value
2018-02-17T00:02:27.165Z,16.37
2018-02-17T00:04:55.599Z,16.45
2018-02-17T00:07:23.862Z,15.65
2018-02-17T00:09:52.203Z,16.50
2018-02-17T00:12:19.807Z,17.95
2018-02-17T00:14:47.374Z,16.12
2018-02-17T00:17:14.955Z,17.45
2018-02-17T00:19:42.587Z,14.95
2018-02-17T00:22:10.165Z,16.62
2018-02-17T00:24:38.534Z,20.75
2018-02-17T00:27:06.124Z,17.17
2018-02-17T00:29:34.675Z,18.23
2018-02-17T00:32:02.278Z,18.20
2018-02-17T00:34:30.746Z,16.00
2018-02-17T00:36:58.315Z,16.80
2018-02-17T00:39:25.929Z,16.73
2018-02-17T00:41:54.230Z,15.75
2018-02-17T00:44:21.791Z,17.27
2018-02-17T00:46:49.354Z,17.85
2018-02-17T00:49:16.915Z,17.90
2018-02-17T00:51:44.480Z,17.87
2018-02-17T00:54:12.053Z,19.17
2018-02-17T00:56:39.711Z,19.02
2018-02-17T00:59:07.284Z,18.23
2018-02-17T01:01:34.908Z,19.15
2018-02-17T01:04:02.480Z,17.55
2018-02-17T01:06:31.006Z,18.58
2018-02-17T01:08:58.567Z,17.95
2018-02-17T01:11:26.136Z,18.77
2018-02-17T01:13:54.628Z,17.75
2018-02-17T01:16:22.977Z,18.58
2018-02-17T01:18:51.311Z,19.30
2018-02-17T01:21:19.679Z,18.08
2018-02-17T01:23:48.023Z,18.02
2018-02-17T01:26:15.586Z,17.70
2018-02-17T01:28:43.228Z,20.75
2018-02-17T01:31:10.795Z,20.00
2018-02-17T01:33:39.144Z,21.17
2018-02-17T01:36:06.709Z,19.62
2018-02-17T01:38:34.311Z,18.67
2018-02-17T01:41:02.803Z,18.75
2018-02-17T01:43:30.378Z,19.83
2018-02-17T01:45:58.868Z,18.65
2018-02-17T01:48:26.479Z,17.60
2018-02-17T01:50:54.850Z,18.80
2018-02-17T01:53:23.214Z,19.10
2018-02-17T01:55:50.836Z,21.30
2018-02-17T01:58:18.394Z,20.35
2018-02-17T02:00:46.857Z,18.90
2018-02-17T02:03:14.414Z,20.50
2018-02-17T02:05:42.784Z,20.70
2018-02-17T02:08:11.118Z,20.05
2018-02-17T02:10:39.331Z,19.85
2018-02-17T02:13:06.890Z,19.70
2018-02-17T02:15:35.286Z,19.00
2018-02-17T02:18:03.654Z,20.77
2018-02-17T02:20:31.218Z,20.33
2018-02-17T02:22:59.708Z,21.85
2018-02-17T02:25:28.038Z,18.77
2018-02-17T02:27:55.633Z,19.62
2018-02-17T02:30:23.195Z,23.35
2018-02-17T02:32:50.794Z,20.70
2018-02-17T02:35:19.256Z,20.55
2018-02-17T02:37:46.863Z,21.65
2018-02-17T02:40:14.424Z,19.95
2018-02-17T02:42:42.911Z,18.62
2018-02-17T02:45:10.478Z,21.70
2018-02-17T02:47:38.878Z,18.47
2018-02-17T02:50:06.479Z,19.80
2018-02-17T02:52:34.127Z,19.08
2018-02-17T02:55:01.687Z,20.45
2018-02-17T02:57:29.256Z,20.80
2018-02-17T02:59:56.855Z,19.67
2018-02-17T03:02:25.263Z,19.83
2018-02-17T03:04:53.674Z,19.85
2018-02-17T03:07:21.240Z,18.23
2018-02-17T03:09:48.837Z,20.42
2018-02-17T03:12:17.205Z,19.13
2018-02-17T03:14:44.765Z,19.20
2018-02-17T03:17:13.168Z,19.30
2018-02-17T03:19:40.731Z,20.15
2018-02-17T03:22:09.251Z,19.77
2018-02-17T03:24:37.466Z,19.47
2018-02-17T03:27:05.738Z,20.35
2018-02-17T03:29:33.286Z,20.27
2018-02-17T03:32:00.834Z,19.83
2018-02-17T03:34:28.382Z,18.40
2018-02-17T03:36:55.934Z,18.60
2018-02-17T03:39:23.484Z,20.67
2018-02-17T03:41:51.031Z,20.10
2018-02-17T03:44:19.542Z,20.27
2018-02-17T03:46:47.096Z,19.20
2018-02-17T03:49:14.656Z,21.50
2018-02-17T03:51:42.218Z,21.02
2018-02-17T03:54:09.779Z,17.73
2018-02-17T03:56:37.354Z,23.10
2018-02-17T03:59:04.927Z,20.90
2018-02-17T04:01:32.483Z,18.40
2018-02-17T04:04:00.044Z,20.20
2018-02-17T04:06:28.370Z,20.50
2018-02-17T04:08:56.199Z,19.53
2018-02-17T04:11:24.569Z,18.80
2018-02-17T04:13:52.117Z,20.17
2018-02-17T04:16:19.672Z,18.13
2018-02-17T04:18:47.258Z,20.40
2018-02-17T04:21:14.807Z,20.93
2018-02-17T04:23:42.357Z,18.60
2018-02-17T04:26:09.920Z,19.02
2018-02-17T04:28:37.520Z,19.43
2018-02-17T04:31:05.079Z,18.70
2018-02-17T04:33:32.641Z,20.37
2018-02-17T04:36:01.101Z,20.70
2018-02-17T04:38:28.666Z,18.80
2018-02-17T04:40:57.922Z,21.43
2018-02-17T04:43:31.015Z,19.30
2018-02-17T04:46:02.357Z,19.87
2018-02-17T04:51:40.267Z,20.40
2018-02-17T04:57:17.388Z,19.02
2018-02-17T05:00:03.875Z,20.05
2018-02-17T05:02:37.969Z,20.37
2018-02-17T05:05:11.255Z,21.47
2018-02-17T05:07:40.600Z,20.02
2018-02-17T05:10:08.876Z,21.63
2018-02-17T05:12:36.437Z,20.08
2018-02-17T05:15:09.453Z,18.30
2018-02-17T05:17:41.433Z,20.77
2018-02-17T05:23:10.937Z,21.43
2018-02-17T05:28:40.785Z,20.43
2018-02-17T05:31:11.649Z,21.93
2018-02-17T05:33:55.896Z,23.23
2018-02-17T05:39:30.518Z,20.67
2018-02-17T05:45:05.735Z,21.93
2018-02-17T05:47:33.284Z,22.80
2018-02-17T05:50:16.610Z,20.77
2018-02-17T05:52:44.163Z,21.00
2018-02-17T05:55:11.781Z,20.40
2018-02-17T05:57:39.344Z,20.42
2018-02-17T06:00:06.903Z,22.37
2018-02-17T06:02:34.457Z,21.77
2018-02-17T06:05:02.742Z,21.62
2018-02-17T06:07:30.297Z,22.13
2018-02-17T06:09:59.918Z,22.00
2018-02-17T06:12:27.466Z,23.97
2018-02-17T06:14:55.867Z,20.57
2018-02-17T06:17:23.429Z,20.70
2018-02-17T06:19:51.054Z,20.67
2018-02-17T06:22:19.348Z,20.50
2018-02-17T06:24:46.912Z,21.83
2018-02-17T06:27:14.503Z,21.57
2018-02-17T06:29:42.046Z,22.60
2018-02-17T06:32:09.655Z,20.50
2018-02-17T06:34:38.024Z,22.87
2018-02-17T06:37:06.490Z,23.35
2018-02-17T06:39:34.042Z,23.33
2018-02-17T06:42:02.526Z,21.10
2018-02-17T06:44:30.868Z,20.70
2018-02-17T06:46:59.228Z,21.40
2018-02-17T06:49:26.792Z,22.65
2018-02-17T06:51:54.354Z,24.20
2018-02-17T06:54:22.769Z,21.70
2018-02-17T06:56:51.128Z,23.33
2018-02-17T06:59:18.678Z,26.07
2018-02-17T07:01:46.244Z,23.85
2018-02-17T07:04:13.803Z,24.10
2018-02-17T07:06:41.369Z,22.42
2018-02-17T07:09:08.917Z,25.80
2018-02-17T07:11:37.283Z,28.73
2018-02-17T07:14:05.646Z,22.33
2018-02-17T07:16:33.206Z,23.90
2018-02-17T07:19:01.522Z,22.30
2018-02-17T07:21:29.077Z,21.87
2018-02-17T07:23:56.666Z,24.67
2018-02-17T07:26:24.265Z,20.12
2018-02-17T07:28:52.546Z,23.90
2018-02-17T07:31:20.113Z,24.55
2018-02-17T07:33:48.649Z,21.90
2018-02-17T07:36:16.210Z,22.47
2018-02-17T07:38:43.808Z,22.63
2018-02-17T07:41:11.386Z,20.93
2018-02-17T07:43:39.840Z,24.00
2018-02-17T07:46:07.390Z,20.60
2018-02-17T07:48:35.920Z,20.90
2018-02-17T07:51:04.447Z,22.75
2018-02-17T07:53:32.695Z,21.70
2018-02-17T07:56:00.309Z,21.77
2018-02-17T07:58:27.857Z,21.70
2018-02-17T08:00:55.411Z,24.17
2018-02-17T08:03:23.868Z,21.33
2018-02-17T08:05:51.417Z,19.90
2018-02-17T08:08:19.936Z,21.23
2018-02-17T08:10:47.526Z,20.20
2018-02-17T08:13:15.088Z,23.90
2018-02-17T08:15:42.678Z,20.90
2018-02-17T08:18:10.226Z,21.97
2018-02-17T08:20:37.770Z,20.00
2018-02-17T08:23:05.378Z,22.57
2018-02-17T08:25:32.929Z,21.20
2018-02-17T08:28:00.483Z,22.83
2018-02-17T08:30:28.036Z,23.63
2018-02-17T08:32:55.591Z,22.17
2018-02-17T08:35:23.142Z,21.33
2018-02-17T08:37:50.696Z,22.23
2018-02-17T08:40:18.266Z,22.43
2018-02-17T08:42:45.815Z,22.93
2018-02-17T08:45:13.370Z,22.67
2018-02-17T08:47:40.921Z,22.53
2018-02-17T08:50:08.559Z,21.63
2018-02-17T08:52:36.146Z,21.90
2018-02-17T08:55:03.695Z,20.57
2018-02-17T08:57:31.245Z,21.33
2018-02-17T08:59:59.244Z,21.50
2018-02-17T09:02:26.866Z,21.83
2018-02-17T09:04:54.431Z,22.50
2018-02-17T09:07:22.774Z,22.40
2018-02-17T09:09:51.163Z,23.23
2018-02-17T09:12:19.393Z,22.00
2018-02-17T09:14:46.990Z,22.70
2018-02-17T09:17:14.546Z,20.90
2018-02-17T09:19:42.099Z,21.60
2018-02-17T09:22:09.646Z,21.03
2018-02-17T09:24:37.199Z,19.50
2018-02-17T09:27:05.591Z,19.70
2018-02-17T09:29:34.026Z,20.63
2018-02-17T09:32:01.573Z,22.20
2018-02-17T09:34:29.934Z,21.80
2018-02-17T09:36:57.483Z,21.30
2018-02-17T09:39:25.031Z,21.10
2018-02-17T09:41:52.611Z,21.47
2018-02-17T09:44:21.105Z,21.30
2018-02-17T09:46:48.654Z,19.87
2018-02-17T09:49:16.208Z,20.67
2018-02-17T09:51:43.762Z,20.00
2018-02-17T09:54:11.310Z,22.00
2018-02-17T09:56:38.859Z,21.30
2018-02-17T09:59:06.447Z,24.20
2018-02-17T10:01:33.999Z,22.33
2018-02-17T10:04:01.592Z,28.47
2018-02-17T10:06:29.155Z,18.70
2018-02-17T10:08:57.715Z,19.10
2018-02-17T10:11:26.034Z,19.70
2018-02-17T10:13:53.624Z,18.73
2018-02-17T10:16:21.182Z,19.10
2018-02-17T10:18:48.772Z,18.23
2018-02-17T10:21:16.323Z,19.33
2018-02-17T10:23:44.656Z,19.73
2018-02-17T10:26:12.703Z,19.90
2018-02-17T10:28:40.270Z,20.03
2018-02-17T10:31:08.655Z,20.73
2018-02-17T10:33:36.930Z,18.23
2018-02-17T10:36:05.304Z,19.50
2018-02-17T10:38:32.864Z,18.70
2018-02-17T10:41:00.455Z,18.70
2018-02-17T10:43:28.003Z,19.70
2018-02-17T10:45:56.419Z,21.90
2018-02-17T10:48:24.759Z,20.40
2018-02-17T10:50:53.106Z,20.20
2018-02-17T10:53:20.660Z,21.47
2018-02-17T10:55:49.007Z,20.80
2018-02-17T10:58:16.573Z,27.67
2018-02-17T11:00:44.942Z,23.20
2018-02-17T11:03:13.302Z,23.30
2018-02-17T11:05:41.647Z,25.33
2018-02-17T11:08:09.202Z,23.00
2018-02-17T11:10:36.791Z,23.60
2018-02-17T11:13:05.237Z,21.53
2018-02-17T11:15:33.574Z,34.17
2018-02-17T11:18:01.959Z,21.63
2018-02-17T11:20:30.412Z,19.30
2018-02-17T11:22:58.013Z,21.20
2018-02-17T11:25:26.459Z,25.27
2018-02-17T11:27:54.055Z,21.80
2018-02-17T11:30:21.642Z,19.17
2018-02-17T11:32:50.019Z,20.37
2018-02-17T11:35:18.508Z,23.23
2018-02-17T11:37:46.890Z,21.33
2018-02-17T11:40:15.226Z,22.23
2018-02-17T11:42:43.573Z,20.40
2018-02-17T11:45:11.162Z,23.73
2018-02-17T11:47:38.711Z,27.73
2018-02-17T11:50:06.308Z,22.20
2018-02-17T11:52:33.863Z,23.10
2018-02-17T11:55:01.824Z,22.27
2018-02-17T11:57:29.521Z,20.60
2018-02-17T11:59:57.066Z,20.87
2018-02-17T12:02:24.618Z,19.20
2018-02-17T12:04:52.170Z,20.10
2018-02-17T12:07:19.722Z,20.20
2018-02-17T12:09:48.138Z,20.57
2018-02-17T12:12:15.690Z,19.50
2018-02-17T12:14:43.238Z,20.13
2018-02-17T12:17:10.794Z,19.40
2018-02-17T12:19:38.340Z,19.60
2018-02-17T12:22:05.887Z,20.20
2018-02-17T12:24:33.436Z,20.50
2018-02-17T12:27:01.500Z,18.77
2018-02-17T12:29:29.047Z,18.20
2018-02-17T12:31:56.647Z,32.17
2018-02-17T12:34:24.197Z,18.77
2018-02-17T12:36:51.747Z,18.03
2018-02-17T12:39:20.239Z,22.87
2018-02-17T12:41:47.803Z,17.40
2018-02-17T12:44:15.388Z,17.40
2018-02-17T12:46:42.931Z,23.30
2018-02-17T12:49:10.520Z,18.47
2018-02-17T12:51:38.898Z,14.33
2018-02-17T12:54:06.479Z,11.50
2018-02-17T12:56:37.459Z,10.13
2018-02-17T12:59:05.010Z,14.77
2018-02-17T13:01:32.562Z,12.20
2018-02-17T13:04:00.887Z,12.20
2018-02-17T13:06:28.446Z,11.43
2018-02-17T13:08:55.993Z,11.20
2018-02-17T13:11:23.583Z,11.40
2018-02-17T13:13:51.911Z,12.23
2018-02-17T13:16:19.495Z,12.50
2018-02-17T13:18:47.964Z,12.33
2018-02-17T13:21:16.282Z,12.13
2018-02-17T13:23:44.634Z,11.80
2018-02-17T13:26:13.006Z,14.83
2018-02-17T13:28:42.330Z,12.70
2018-02-17T13:31:10.817Z,13.93
2018-02-17T13:33:38.364Z,11.20
2018-02-17T13:36:06.874Z,12.00
2018-02-17T13:38:35.274Z,13.93
2018-02-17T13:41:02.817Z,11.20
2018-02-17T13:43:34.142Z,10.57
2018-02-17T13:46:01.890Z,10.87
2018-02-17T13:48:30.245Z,13.83
2018-02-17T13:50:58.584Z,13.30
2018-02-17T13:53:26.950Z,10.70
2018-02-17T13:55:54.494Z,10.23
2018-02-17T13:58:23.012Z,10.23
2018-02-17T14:00:51.341Z,10.40
2018-02-17T14:03:18.930Z,9.63
2018-02-17T14:05:47.295Z,9.30
2018-02-17T14:08:14.891Z,9.97
2018-02-17T14:10:42.451Z,10.65
2018-02-17T14:13:09.999Z,10.60
2018-02-17T14:15:38.490Z,9.50
2018-02-17T14:18:06.383Z,10.73
2018-02-17T14:20:34.181Z,10.00
2018-02-17T14:23:01.742Z,10.10
2018-02-17T14:25:29.334Z,12.37
2018-02-17T14:27:56.887Z,11.33
2018-02-17T14:30:25.171Z,10.27
2018-02-17T14:32:52.781Z,10.40
2018-02-17T14:35:20.343Z,9.73
2018-02-17T14:37:47.894Z,10.00
2018-02-17T14:40:16.338Z,9.60
2018-02-17T14:42:44.797Z,9.30
2018-02-17T14:45:13.049Z,8.80
2018-02-17T14:47:41.414Z,8.67
2018-02-17T14:50:08.960Z,8.27
2018-02-17T14:52:37.308Z,8.00
2018-02-17T14:55:04.858Z,11.77
2018-02-17T14:57:32.447Z,8.03
2018-02-17T14:59:59.999Z,8.13
2018-02-17T15:02:28.478Z,8.90
2018-02-17T15:04:56.912Z,7.40
2018-02-17T15:07:25.230Z,7.30
2018-02-17T15:09:53.583Z,7.23
2018-02-17T15:12:21.148Z,7.50
2018-02-17T15:14:48.698Z,6.50
2018-02-17T15:17:16.927Z,6.50
2018-02-17T15:19:44.478Z,8.20
2018-02-17T15:22:12.253Z,7.73
2018-02-17T15:24:39.837Z,10.40
2018-02-17T15:27:07.393Z,10.23
2018-02-17T15:29:34.947Z,10.07
2018-02-17T15:32:05.468Z,11.27
2018-02-17T15:34:33.117Z,10.57
2018-02-17T15:37:00.667Z,10.87
2018-02-17T15:39:29.062Z,9.27
2018-02-17T15:41:56.607Z,9.60
2018-02-17T15:44:24.954Z,7.90
2018-02-17T15:46:52.499Z,8.90
2018-02-17T15:49:20.783Z,8.10
2018-02-17T15:51:48.339Z,13.50
2018-02-17T15:54:15.886Z,10.00
2018-02-17T15:56:43.435Z,9.27
2018-02-17T15:59:10.991Z,10.37
2018-02-17T16:01:38.546Z,10.60
2018-02-17T16:04:07.034Z,8.30
2018-02-17T16:06:34.592Z,10.03
2018-02-17T16:09:03.041Z,7.50
2018-02-17T16:11:30.594Z,6.73
2018-02-17T16:13:58.149Z,7.70
2018-02-17T16:16:25.710Z,8.80
2018-02-17T16:18:53.264Z,8.20
2018-02-17T16:21:21.792Z,8.90
2018-02-17T16:23:49.335Z,9.30
2018-02-17T16:26:16.877Z,8.87
2018-02-17T16:28:44.422Z,9.03
2018-02-17T16:31:11.966Z,8.73
2018-02-17T16:33:39.516Z,8.53
2018-02-17T16:36:07.129Z,9.60
2018-02-17T16:38:34.728Z,10.03
2018-02-17T16:41:02.335Z,12.33
2018-02-17T16:43:29.904Z,12.60
2018-02-17T16:45:57.496Z,12.53
2018-02-17T16:48:25.163Z,9.97
2018-02-17T16:50:52.720Z,11.77
2018-02-17T16:53:20.383Z,11.60
2018-02-17T16:55:47.936Z,13.30
2018-02-17T16:58:16.440Z,11.67
2018-02-17T17:00:43.994Z,11.60
2018-02-17T17:03:11.551Z,10.80
2018-02-17T17:05:39.112Z,10.90
2018-02-17T17:08:07.560Z,10.77
2018-02-17T17:10:36.071Z,11.80
2018-02-17T17:13:04.438Z,8.80
2018-02-17T17:15:32.880Z,11.03
2018-02-17T17:18:00.433Z,9.93
2018-02-17T17:20:28.012Z,11.40
2018-02-17T17:22:56.348Z,10.60
2018-02-17T17:25:23.939Z,11.47
2018-02-17T17:27:51.567Z,11.60
2018-02-17T17:30:19.963Z,10.77
2018-02-17T17:32:47.574Z,12.63
2018-02-17T17:35:15.163Z,11.73
2018-02-17T17:37:43.618Z,9.87
2018-02-17T17:40:12.023Z,10.90
2018-02-17T17:42:40.280Z,10.57
2018-02-17T17:45:08.105Z,10.67
2018-02-17T17:47:36.491Z,10.77
2018-02-17T17:50:05.012Z,11.27
2018-02-17T17:52:32.608Z,10.63
2018-02-17T17:55:00.254Z,11.47
2018-02-17T17:57:28.572Z,12.97
2018-02-17T17:59:56.823Z,12.33
2018-02-17T18:02:24.943Z,10.07
2018-02-17T18:04:52.487Z,11.40
2018-02-17T18:07:20.035Z,11.37
2018-02-17T18:09:47.664Z,11.97
2018-02-17T18:12:15.337Z,11.47
2018-02-17T18:14:42.887Z,14.60
2018-02-17T18:17:11.315Z,18.77
2018-02-17T18:19:39.651Z,23.60
2018-02-17T18:22:07.255Z,23.60
2018-02-17T18:24:34.869Z,22.53
2018-02-17T18:27:03.194Z,20.43
2018-02-17T18:29:31.576Z,20.87
2018-02-17T18:31:59.165Z,21.10
2018-02-17T18:34:26.722Z,21.33
2018-02-17T18:36:54.317Z,19.33
2018-02-17T18:39:21.885Z,19.17
2018-02-17T18:41:49.445Z,17.60
2018-02-17T18:44:17.046Z,18.03
2018-02-17T18:46:44.602Z,18.03
2018-02-17T18:49:12.177Z,15.77
2018-02-17T18:51:39.763Z,17.23
2018-02-17T18:54:07.314Z,14.90
2018-02-17T18:56:34.903Z,16.50
2018-02-17T18:59:02.490Z,15.37
2018-02-17T19:01:30.855Z,14.50
2018-02-17T19:03:58.413Z,12.67
2018-02-17T19:06:26.010Z,14.70
2018-02-17T19:08:53.568Z,13.77
2018-02-17T19:11:21.172Z,14.90
2018-02-17T19:13:48.724Z,14.13
2018-02-17T19:16:16.310Z,16.40
2018-02-17T19:18:43.894Z,16.53
2018-02-17T19:21:11.455Z,16.80
2018-02-17T19:23:39.059Z,17.03
2018-02-17T19:26:06.610Z,17.20
2018-02-17T19:28:34.164Z,15.83
2018-02-17T19:31:01.747Z,16.47
2018-02-17T19:33:29.343Z,16.53
2018-02-17T19:35:56.894Z,18.30
2018-02-17T19:38:24.493Z,16.90
2018-02-17T19:40:52.046Z,15.27
2018-02-17T19:43:19.650Z,15.93
2018-02-17T19:45:47.205Z,15.20
2018-02-17T19:48:26.652Z,16.20
2018-02-17T19:50:54.458Z,16.40
2018-02-17T19:53:22.016Z,18.07
2018-02-17T19:56:00.350Z,16.43
2018-02-17T19:58:27.970Z,22.00
2018-02-17T20:00:56.359Z,23.00
2018-02-17T20:03:43.315Z,24.90
2018-02-17T20:06:10.862Z,21.93
2018-02-17T20:08:38.423Z,18.10
2018-02-17T20:11:05.977Z,18.50
2018-02-17T20:13:33.536Z,18.20
2018-02-17T20:16:01.085Z,28.30
2018-02-17T20:18:28.644Z,22.80
2018-02-17T20:20:56.296Z,24.07
2018-02-17T20:23:23.908Z,28.17
2018-02-17T20:25:52.232Z,23.90
2018-02-17T20:28:20.594Z,22.50
2018-02-17T20:30:49.051Z,22.50
2018-02-17T20:33:16.608Z,20.80
2018-02-17T20:35:44.163Z,19.87
2018-02-17T20:38:11.724Z,20.70
2018-02-17T20:40:39.311Z,19.50
2018-02-17T20:43:06.867Z,19.27
2018-02-17T20:45:34.420Z,19.90
2018-02-17T20:48:01.980Z,18.50
2018-02-17T20:50:29.580Z,18.50
2018-02-17T20:52:57.239Z,18.00
2018-02-17T20:55:24.795Z,17.60
2018-02-17T20:57:52.343Z,18.57
2018-02-17T21:00:20.798Z,17.70
2018-02-17T21:02:48.408Z,19.20
2018-02-17T21:05:15.927Z,19.90
2018-02-17T21:07:43.557Z,18.67
2018-02-17T21:10:11.090Z,16.77
2018-02-17T21:12:39.494Z,16.00
2018-02-17T21:15:07.847Z,17.50
2018-02-17T21:17:35.464Z,17.63
2018-02-17T21:20:03.019Z,16.60
2018-02-17T21:22:30.591Z,17.27
2018-02-17T21:24:58.160Z,17.43
2018-02-17T21:27:25.807Z,17.43
2018-02-17T21:29:54.167Z,14.90
2018-02-17T21:32:21.723Z,15.37
2018-02-17T21:34:50.126Z,14.90
2018-02-17T21:37:17.679Z,16.37
2018-02-17T21:39:45.267Z,16.57
2018-02-17T21:42:12.921Z,15.20
2018-02-17T21:44:41.300Z,15.27
2018-02-17T21:47:09.623Z,16.23
2018-02-17T21:49:37.217Z,15.50
2018-02-17T21:52:04.771Z,14.03
2018-02-17T21:54:32.362Z,14.07
2018-02-17T21:57:00.740Z,16.93
2018-02-17T21:59:29.063Z,14.97
2018-02-17T22:01:56.656Z,13.77
2018-02-17T22:04:25.027Z,15.10
2018-02-17T22:06:53.391Z,14.07
2018-02-17T22:09:20.999Z,14.50
2018-02-17T22:11:49.215Z,12.80
2018-02-17T22:14:16.768Z,12.90
2018-02-17T22:16:45.141Z,14.93
2018-02-17T22:19:13.403Z,12.90
2018-02-17T22:21:40.972Z,13.07
2018-02-17T22:24:09.355Z,13.93
2018-02-17T22:26:36.908Z,13.27
2018-02-17T22:29:04.468Z,12.43
2018-02-17T22:31:32.935Z,14.17
2018-02-17T22:34:01.400Z,12.37
2018-02-17T22:36:28.963Z,12.90
2018-02-17T22:38:56.520Z,13.10
2018-02-17T22:41:24.931Z,14.00
2018-02-17T22:43:53.316Z,12.83
2018-02-17T22:46:20.916Z,14.27
2018-02-17T22:48:48.473Z,14.60
2018-02-17T22:51:16.094Z,14.77
2018-02-17T22:53:43.644Z,16.37
2018-02-17T22:56:11.232Z,12.67
2018-02-17T22:58:38.784Z,14.17
2018-02-17T23:01:06.422Z,14.87
2018-02-17T23:03:34.266Z,15.67
2018-02-17T23:06:01.858Z,14.70
2018-02-17T23:08:29.419Z,16.83
2018-02-17T23:10:57.928Z,15.57
2018-02-17T23:13:25.482Z,13.87
2018-02-17T23:15:53.042Z,16.27
2018-02-17T23:18:21.467Z,16.07
2018-02-17T23:20:49.025Z,13.10
2018-02-17T23:23:16.587Z,13.43
2018-02-17T23:25:45.093Z,14.83
2018-02-17T23:28:13.466Z,13.73
2018-02-17T23:30:41.964Z,11.60
2018-02-17T23:33:09.530Z,14.80
2018-02-17T23:35:37.122Z,11.83
2018-02-17T23:38:04.666Z,11.00
2018-02-17T23:40:32.222Z,12.20
2018-02-17T23:42:59.775Z,11.67
2018-02-17T23:45:27.330Z,11.47
2018-02-17T23:47:54.910Z,11.37
2018-02-17T23:50:22.463Z,11.93
2018-02-17T23:52:50.062Z,11.10
2018-02-17T23:55:17.619Z,11.17
2018-02-17T23:57:45.484Z,10.20
